createdAt,value
2023-03-23T00:00:22.182Z,87.88
2023-03-23T00:01:22.877Z,88.36
2023-03-23T00:02:23.490Z,88.07
2023-03-23T00:03:23.552Z,88.45
2023-03-23T00:04:27.095Z,88.36
2023-03-23T00:05:25.312Z,88.36
2023-03-23T00:06:25.343Z,88.84
2023-03-23T00:07:26.231Z,88.64
2023-03-23T00:08:26.756Z,88.55
2023-03-23T00:09:26.873Z,88.64
2023-03-23T00:10:27.350Z,88.84
2023-03-23T00:11:28.549Z,88.64
2023-03-23T00:12:36.944Z,88.55
2023-03-23T00:13:29.875Z,88.84
2023-03-23T00:14:30.437Z,88.84
2023-03-23T00:15:31.111Z,88.74
2023-03-23T00:16:31.422Z,89.6
2023-03-23T00:17:32.101Z,89.22
2023-03-23T00:18:32.635Z,89.22
2023-03-23T00:19:33.154Z,88.93
2023-03-23T00:20:33.850Z,89.12
2023-03-23T00:21:34.514Z,89.89
2023-03-23T00:22:35.558Z,89.4
2023-03-23T00:23:36.229Z,89.79
2023-03-23T00:24:37.052Z,89.12
2023-03-23T00:25:37.804Z,89.6
2023-03-23T00:26:53.504Z,89.5
2023-03-23T00:27:39.359Z,89.31
2023-03-23T00:28:39.571Z,89.31
2023-03-23T00:29:40.365Z,89.5
2023-03-23T00:30:40.673Z,89.5
2023-03-23T00:31:41.337Z,88.93
2023-03-23T00:32:42.435Z,89.31
2023-03-23T00:33:42.540Z,89.31
2023-03-23T00:34:43.575Z,89.22
2023-03-23T00:35:44.546Z,89.4
2023-03-23T00:36:44.826Z,88.45
2023-03-23T00:37:45.133Z,89.4
2023-03-23T00:38:46.828Z,88.84
2023-03-23T00:39:47.146Z,89.03
2023-03-23T00:40:47.723Z,88.64
2023-03-23T00:41:48.478Z,88.74
2023-03-23T00:42:48.461Z,88.84
2023-03-23T00:43:48.562Z,88.74
2023-03-23T00:44:49.602Z,89.4
2023-03-23T00:45:50.503Z,88.55
2023-03-23T00:46:51.255Z,88.84
2023-03-23T00:47:52.009Z,89.4
2023-03-23T00:48:52.682Z,88.74
2023-03-23T00:49:53.302Z,88.84
2023-03-23T00:50:54.407Z,88.64
2023-03-23T00:51:55.204Z,88.55
2023-03-23T00:52:56.311Z,88.84
2023-03-23T00:53:57.168Z,88.55
2023-03-23T00:54:56.849Z,88.93
2023-03-23T00:55:57.180Z,88.93
2023-03-23T00:56:57.616Z,88.84
2023-03-23T00:57:59.009Z,88.55
2023-03-23T01:00:10.699Z,88.74
2023-03-23T01:00:59.879Z,88.74
2023-03-23T01:02:00.802Z,89.12
2023-03-23T01:03:02.086Z,89.4
2023-03-23T01:04:01.991Z,88.64
2023-03-23T01:05:02.344Z,88.84
2023-03-23T01:06:03.392Z,88.84
2023-03-23T01:07:04.356Z,88.84
2023-03-23T01:08:04.239Z,88.84
2023-03-23T01:09:04.682Z,89.4
2023-03-23T01:10:05.483Z,89.03
2023-03-23T01:11:05.857Z,89.12
2023-03-23T01:12:06.709Z,89.22
2023-03-23T01:13:06.883Z,89.55
2023-03-23T01:14:07.483Z,89.98
2023-03-23T01:15:07.917Z,89.98
2023-03-23T01:16:09.002Z,89.4
2023-03-23T01:17:09.722Z,89.69
2023-03-23T01:18:10.499Z,89.94
2023-03-23T01:19:15.976Z,89.75
2023-03-23T01:20:15.983Z,89.84
2023-03-23T01:21:16.780Z,89.98
2023-03-23T01:22:17.327Z,90.41
2023-03-23T01:23:17.969Z,90.22
2023-03-23T01:24:18.715Z,90.22
2023-03-23T01:25:19.099Z,90.22
2023-03-23T01:26:19.466Z,90.22
2023-03-23T01:27:20.364Z,90.5
2023-03-23T01:28:21.431Z,90.79
2023-03-23T01:29:21.676Z,90.7
2023-03-23T01:30:21.994Z,90.79
2023-03-23T01:31:23.235Z,90.79
2023-03-23T01:32:24.224Z,90.31
2023-03-23T01:33:24.319Z,90.7
2023-03-23T01:34:25.104Z,90.79
2023-03-23T01:35:25.306Z,90.79
2023-03-23T01:36:25.386Z,90.31
2023-03-23T01:37:26.873Z,90.12
2023-03-23T01:38:26.765Z,90.41
2023-03-23T01:39:26.778Z,90.12
2023-03-23T01:40:27.903Z,89.75
2023-03-23T01:41:28.589Z,89.94
2023-03-23T01:42:29.427Z,89.65
2023-03-23T01:43:30.274Z,89.75
2023-03-23T01:44:30.618Z,89.89
2023-03-23T01:45:31.870Z,89.65
2023-03-23T01:46:32.789Z,89.89
2023-03-23T01:47:32.817Z,89.79
2023-03-23T01:48:33.004Z,89.26
2023-03-23T01:49:33.621Z,89.69
2023-03-23T01:50:34.085Z,89.84
2023-03-23T01:51:47.064Z,89.84
2023-03-23T01:52:36.131Z,89.94
2023-03-23T01:53:36.634Z,89.84
2023-03-23T01:54:37.331Z,90.31
2023-03-23T01:55:38.100Z,90.41
2023-03-23T01:56:38.957Z,90.31
2023-03-23T01:57:39.763Z,90.41
2023-03-23T01:58:40.174Z,90.41
2023-03-23T01:59:40.722Z,90.79
2023-03-23T02:00:40.721Z,90.98
2023-03-23T02:01:41.739Z,90.89
2023-03-23T02:02:42.591Z,90.89
2023-03-23T02:03:43.401Z,91.46
2023-03-23T02:04:43.902Z,91.65
2023-03-23T02:05:44.444Z,91.46
2023-03-23T02:06:44.923Z,91.55
2023-03-23T02:07:45.730Z,90.89
2023-03-23T02:08:46.462Z,90.79
2023-03-23T02:09:46.399Z,90.98
2023-03-23T02:10:56.667Z,90.98
2023-03-23T02:11:47.507Z,91.27
2023-03-23T02:12:48.198Z,91.27
2023-03-23T02:13:48.177Z,91.08
2023-03-23T02:14:48.922Z,90.5
2023-03-23T02:15:48.619Z,90.79
2023-03-23T02:16:49.354Z,90.7
2023-03-23T02:17:50.224Z,91.08
2023-03-23T02:18:50.186Z,90.89
2023-03-23T02:19:50.938Z,90.98
2023-03-23T02:20:51.134Z,90.89
2023-03-23T02:21:51.566Z,90.89
2023-03-23T02:22:52.382Z,90.7
2023-03-23T02:23:53.076Z,90.89
2023-03-23T02:24:53.846Z,90.79
2023-03-23T02:25:53.786Z,90.7
2023-03-23T02:26:54.821Z,90.5
2023-03-23T02:27:55.235Z,90.98
2023-03-23T02:28:55.463Z,90.89
2023-03-23T02:29:55.564Z,90.98
2023-03-23T02:30:55.957Z,90.7
2023-03-23T02:31:56.942Z,90.79
2023-03-23T02:32:57.609Z,90.98
2023-03-23T02:33:58.555Z,90.89
2023-03-23T02:34:58.912Z,90.31
2023-03-23T02:35:59.864Z,90.22
2023-03-23T02:36:59.951Z,90.31
2023-03-23T02:38:00.851Z,89.94
2023-03-23T02:39:01.704Z,90.03
2023-03-23T02:40:02.497Z,89.94
2023-03-23T02:41:03.514Z,90.03
2023-03-23T02:42:03.755Z,90.22
2023-03-23T02:43:04.341Z,90.03
2023-03-23T02:44:04.434Z,89.79
2023-03-23T02:47:29.576Z,90.31
2023-03-23T02:48:30.710Z,90.41
2023-03-23T02:49:31.141Z,90.5
2023-03-23T02:50:31.645Z,90.41
2023-03-23T02:51:32.136Z,90.03
2023-03-23T02:52:32.956Z,89.94
2023-03-23T02:53:33.141Z,89.84
2023-03-23T02:54:33.951Z,89.75
2023-03-23T02:55:34.566Z,89.65
2023-03-23T02:56:35.627Z,89.94
2023-03-23T02:57:45.684Z,89.75
2023-03-23T02:58:37.592Z,90.31
2023-03-23T02:59:38.488Z,90.12
2023-03-23T03:00:39.555Z,90.12
2023-03-23T03:01:39.813Z,90.22
2023-03-23T03:02:40.687Z,90.31
2023-03-23T03:03:41.186Z,90.12
2023-03-23T03:04:41.518Z,90.31
2023-03-23T03:05:42.733Z,90.31
2023-03-23T03:06:43.259Z,90.6
2023-03-23T03:07:44.277Z,90.6
2023-03-23T03:08:45.341Z,90.89
2023-03-23T03:09:45.079Z,91.36
2023-03-23T03:10:45.573Z,91.65
2023-03-23T03:11:46.573Z,91.46
2023-03-23T03:12:47.123Z,91.65
2023-03-23T03:13:47.596Z,91.55
2023-03-23T03:14:51.584Z,91.94
2023-03-23T03:15:49.460Z,92.13
2023-03-23T03:16:49.702Z,92.32
2023-03-23T03:17:50.571Z,91.84
2023-03-23T03:18:50.994Z,92.03
2023-03-23T03:19:51.959Z,91.84
2023-03-23T03:20:55.225Z,92.13
2023-03-23T03:21:52.819Z,92.03
2023-03-23T03:22:53.261Z,91.94
2023-03-23T03:23:54.245Z,91.55
2023-03-23T03:24:55.119Z,91.55
2023-03-23T03:25:55.350Z,91.65
2023-03-23T03:26:56.333Z,91.55
2023-03-23T03:27:56.173Z,91.89
2023-03-23T03:28:56.873Z,92.08
2023-03-23T03:29:56.642Z,91.99
2023-03-23T03:30:57.472Z,92.55
2023-03-23T03:31:58.521Z,92.46
2023-03-23T03:33:00.258Z,92.65
2023-03-23T03:34:00.941Z,92.46
2023-03-23T03:35:00.705Z,92.89
2023-03-23T03:36:01.540Z,92.94
2023-03-23T03:37:01.494Z,92.84
2023-03-23T03:38:02.240Z,92.94
2023-03-23T03:39:02.536Z,92.74
2023-03-23T03:40:03.607Z,92.27
2023-03-23T03:41:03.604Z,92.46
2023-03-23T03:42:04.513Z,92.74
2023-03-23T03:43:05.540Z,92.94
2023-03-23T03:44:06.333Z,92.08
2023-03-23T03:45:06.915Z,91.89
2023-03-23T03:46:07.406Z,91.94
2023-03-23T03:47:08.494Z,91.89
2023-03-23T03:48:11.095Z,92.55
2023-03-23T03:49:09.839Z,92.32
2023-03-23T03:50:10.470Z,92.69
2023-03-23T03:51:11.147Z,91.94
2023-03-23T03:52:11.422Z,92.08
2023-03-23T03:53:12.323Z,92.03
2023-03-23T03:54:12.866Z,91.89
2023-03-23T03:55:13.271Z,91.89
2023-03-23T03:56:13.343Z,92.13
2023-03-23T03:57:14.194Z,91.7
2023-03-23T03:58:16.062Z,91.99
2023-03-23T03:59:27.514Z,92.55
2023-03-23T04:00:16.623Z,92.65
2023-03-23T04:01:17.090Z,92.36
2023-03-23T04:02:17.878Z,92.65
2023-03-23T04:03:18.225Z,92.74
2023-03-23T04:04:19.211Z,92.74
2023-03-23T04:05:19.152Z,92.65
2023-03-23T04:06:20.063Z,92.55
2023-03-23T04:07:19.709Z,92.55
2023-03-23T04:08:21.636Z,92.55
2023-03-23T04:09:22.211Z,93.13
2023-03-23T04:10:37.764Z,93.6
2023-03-23T04:11:38.685Z,93.79
2023-03-23T04:13:27.943Z,93.51
2023-03-23T04:14:27.995Z,93.7
2023-03-23T04:15:28.444Z,93.79
2023-03-23T04:16:29.652Z,93.6
2023-03-23T04:17:30.169Z,93.98
2023-03-23T04:18:30.065Z,93.89
2023-03-23T04:19:30.778Z,94.08
2023-03-23T04:20:37.586Z,94.27
2023-03-23T04:21:32.495Z,93.79
2023-03-23T04:23:33.479Z,94.08
2023-03-23T04:25:02.162Z,93.98
2023-03-23T04:25:33.903Z,94.17
2023-03-23T04:26:34.717Z,94.08
2023-03-23T04:27:34.565Z,93.98
2023-03-23T04:28:35.631Z,94.08
2023-03-23T04:29:36.293Z,94.08
2023-03-23T04:30:36.680Z,94.08
2023-03-23T04:31:38.012Z,93.98
2023-03-23T04:32:38.547Z,93.98
2023-03-23T04:34:05.967Z,94.08
2023-03-23T04:34:38.717Z,93.98
2023-03-23T04:35:39.297Z,94.17
2023-03-23T04:37:01.786Z,94.17
2023-03-23T04:37:40.954Z,94.37
2023-03-23T04:38:41.184Z,93.89
2023-03-23T04:39:41.661Z,93.41
2023-03-23T04:40:41.944Z,94.37
2023-03-23T04:41:42.628Z,94.08
2023-03-23T04:42:43.378Z,93.32
2023-03-23T04:43:43.462Z,93.32
2023-03-23T04:44:44.378Z,93.41
2023-03-23T04:45:45.332Z,94.17
2023-03-23T04:46:45.266Z,93.79
2023-03-23T04:47:46.063Z,94.08
2023-03-23T04:48:47.092Z,94.17
2023-03-23T04:49:47.603Z,94.27
2023-03-23T04:50:48.840Z,94.37
2023-03-23T04:51:49.276Z,93.98
2023-03-23T04:52:54.517Z,94.17
2023-03-23T04:53:51.049Z,93.98
2023-03-23T04:54:51.441Z,94.08
2023-03-23T04:55:52.353Z,94.27
2023-03-23T04:56:52.894Z,94.27
2023-03-23T04:57:53.165Z,94.37
2023-03-23T04:58:53.868Z,93.79
2023-03-23T04:59:54.585Z,94.08
2023-03-23T05:00:55.131Z,93.32
2023-03-23T05:02:19.594Z,93.89
2023-03-23T05:04:11.557Z,93.41
2023-03-23T05:05:12.237Z,92.94
2023-03-23T05:06:13.197Z,92.74
2023-03-23T05:07:13.888Z,92.36
2023-03-23T05:08:14.493Z,92.94
2023-03-23T05:09:15.462Z,92.74
2023-03-23T05:10:15.769Z,92.55
2023-03-23T05:11:15.901Z,92.65
2023-03-23T05:12:16.657Z,92.74
2023-03-23T05:13:16.846Z,92.65
2023-03-23T05:14:17.704Z,92.55
2023-03-23T05:15:18.419Z,92.65
2023-03-23T05:16:19.395Z,92.74
2023-03-23T05:17:19.553Z,92.84
2023-03-23T05:18:20.069Z,92.84
2023-03-23T05:19:20.362Z,92.08
2023-03-23T05:20:20.801Z,91.84
2023-03-23T05:21:21.500Z,92.5
2023-03-23T05:22:22.410Z,92.79
2023-03-23T05:23:23.291Z,92.84
2023-03-23T05:24:24.205Z,92.79
2023-03-23T05:25:24.698Z,91.94
2023-03-23T05:26:25.591Z,91.94
2023-03-23T05:27:25.589Z,92.03
2023-03-23T05:28:26.294Z,91.74
2023-03-23T05:29:27.081Z,91.74
2023-03-23T05:30:28.042Z,92.41
2023-03-23T05:31:28.758Z,92.22
2023-03-23T05:32:29.718Z,92.22
2023-03-23T05:33:30.793Z,91.84
2023-03-23T05:34:31.269Z,92.22
2023-03-23T05:35:31.947Z,92.13
2023-03-23T05:36:32.500Z,91.84
2023-03-23T05:37:33.392Z,92.13
2023-03-23T05:38:34.305Z,92.5
2023-03-23T05:39:35.201Z,92.79
2023-03-23T05:40:35.694Z,92.03
2023-03-23T05:41:36.426Z,92.03
2023-03-23T05:42:36.782Z,92.13
2023-03-23T05:43:37.561Z,92.79
2023-03-23T05:44:39.115Z,92.41
2023-03-23T05:45:39.010Z,91.89
2023-03-23T05:46:39.911Z,92.13
2023-03-23T05:47:41.234Z,91.94
2023-03-23T05:48:40.509Z,91.84
2023-03-23T05:49:41.405Z,91.84
2023-03-23T05:50:42.102Z,91.65
2023-03-23T05:51:51.514Z,91.65
2023-03-23T05:52:43.013Z,91.84
2023-03-23T05:53:44.001Z,91.74
2023-03-23T05:54:44.895Z,91.74
2023-03-23T05:55:45.724Z,91.65
2023-03-23T05:56:46.416Z,91.84
2023-03-23T05:57:46.930Z,91.84
2023-03-23T05:58:47.405Z,91.36
2023-03-23T05:59:48.371Z,90.98
2023-03-23T06:00:48.714Z,91.46
2023-03-23T06:01:55.763Z,90.98
2023-03-23T06:02:50.162Z,91.27
2023-03-23T06:03:50.660Z,91.84
2023-03-23T06:04:51.892Z,91.94
2023-03-23T06:05:52.867Z,91.74
2023-03-23T06:06:53.129Z,91.84
2023-03-23T06:07:53.448Z,91.55
2023-03-23T06:08:53.743Z,91.65
2023-03-23T06:09:54.119Z,91.74
2023-03-23T06:10:55.074Z,91.94
2023-03-23T06:11:55.976Z,91.55
2023-03-23T06:12:56.468Z,91.46
2023-03-23T06:13:57.071Z,91.65
2023-03-23T06:14:57.961Z,91.55
2023-03-23T06:15:58.472Z,91.08
2023-03-23T06:16:59.007Z,91.08
2023-03-23T06:17:59.223Z,91.36
2023-03-23T06:18:59.969Z,91.36
2023-03-23T06:20:00.644Z,91.27
2023-03-23T06:21:01.653Z,91.36
2023-03-23T06:22:02.255Z,91.27
2023-03-23T06:23:03.006Z,90.98
2023-03-23T06:24:03.856Z,91.36
2023-03-23T06:25:04.569Z,91.27
2023-03-23T06:26:10.119Z,91.17
2023-03-23T06:27:05.670Z,91.27
2023-03-23T06:28:05.846Z,90.89
2023-03-23T06:29:06.342Z,91.55
2023-03-23T06:30:06.854Z,90.7
2023-03-23T06:31:07.654Z,91.55
2023-03-23T06:32:08.158Z,91.55
2023-03-23T06:33:08.122Z,91.65
2023-03-23T06:34:09.191Z,91.55
2023-03-23T06:35:09.675Z,91.46
2023-03-23T06:36:10.668Z,90.98
2023-03-23T06:37:11.534Z,90.89
2023-03-23T06:38:11.691Z,90.41
2023-03-23T06:39:12.077Z,90.7
2023-03-23T06:40:12.371Z,90.31
2023-03-23T06:41:12.848Z,90.7
2023-03-23T06:42:12.936Z,90.7
2023-03-23T06:43:13.398Z,90.7
2023-03-23T06:44:14.021Z,90.79
2023-03-23T06:45:14.151Z,90.36
2023-03-23T06:46:15.197Z,90.08
2023-03-23T06:47:15.749Z,89.79
2023-03-23T06:48:16.775Z,89.4
2023-03-23T06:49:17.487Z,89.12
2023-03-23T06:50:18.333Z,89.22
2023-03-23T06:51:19.029Z,88.93
2023-03-23T06:52:19.531Z,88.74
2023-03-23T06:53:20.043Z,88.74
2023-03-23T06:54:20.282Z,88.84
2023-03-23T06:55:21.002Z,87.98
2023-03-23T06:56:21.703Z,87.79
2023-03-23T06:57:22.452Z,87.69
2023-03-23T06:58:23.003Z,87.69
2023-03-23T06:59:23.602Z,87.79
2023-03-23T07:00:24.525Z,87.69
2023-03-23T07:01:25.528Z,87.69
2023-03-23T07:02:26.109Z,87.21
2023-03-23T07:03:27.306Z,87.31
2023-03-23T07:04:27.917Z,87.21
2023-03-23T07:05:28.015Z,87.31
2023-03-23T07:06:28.421Z,87.21
2023-03-23T07:07:29.121Z,87.21
2023-03-23T07:08:29.236Z,87.35
2023-03-23T07:09:46.274Z,87.07
2023-03-23T07:10:30.200Z,87.16
2023-03-23T07:11:30.325Z,87.16
2023-03-23T07:12:30.609Z,86.78
2023-03-23T07:13:31.292Z,86.69
2023-03-23T07:14:31.705Z,87.83
2023-03-23T07:15:32.405Z,87.54
2023-03-23T07:16:33.480Z,87.26
2023-03-23T07:17:34.276Z,86.69
2023-03-23T07:18:34.470Z,85.93
2023-03-23T07:19:34.574Z,86.21
2023-03-23T07:20:35.296Z,85.54
2023-03-23T07:21:35.994Z,84.97
2023-03-23T07:22:36.715Z,85.25
2023-03-23T07:23:36.682Z,85.54
2023-03-23T07:24:37.287Z,85.54
2023-03-23T07:25:37.385Z,85.54
2023-03-23T07:26:38.424Z,86.21
2023-03-23T07:27:39.006Z,86.06
2023-03-23T07:28:39.913Z,85.68
2023-03-23T07:29:39.819Z,84.92
2023-03-23T07:30:40.929Z,84.63
2023-03-23T07:31:41.902Z,84.53
2023-03-23T07:32:42.647Z,84.16
2023-03-23T07:33:43.850Z,83.67
2023-03-23T07:34:44.496Z,83.96
2023-03-23T07:35:45.595Z,83.29
2023-03-23T07:36:46.549Z,83.01
2023-03-23T07:37:46.475Z,82.86
2023-03-23T07:38:47.617Z,83.14
2023-03-23T07:39:48.301Z,82.57
2023-03-23T07:40:48.640Z,82.38
2023-03-23T07:41:49.162Z,82.19
2023-03-23T07:42:49.667Z,82.29
2023-03-23T07:43:50.633Z,82.57
2023-03-23T07:44:52.263Z,81.76
2023-03-23T07:45:52.013Z,81.66
2023-03-23T07:46:52.395Z,81.37
2023-03-23T07:47:53.100Z,80.7
2023-03-23T07:48:53.672Z,80.22
2023-03-23T07:49:54.550Z,78.99
2023-03-23T07:50:55.445Z,78.6
2023-03-23T07:51:56.422Z,78.45
2023-03-23T07:52:56.525Z,78.93
2023-03-23T07:53:57.623Z,78.26
2023-03-23T07:55:58.293Z,76.92
2023-03-23T07:56:59.024Z,77.25
2023-03-23T07:57:59.729Z,76.2
2023-03-23T07:59:00.642Z,76.1
2023-03-23T08:00:01.505Z,76.71
2023-03-23T08:01:01.452Z,76.81
2023-03-23T08:02:02.237Z,75.85
2023-03-23T08:03:02.989Z,76.04
2023-03-23T08:04:03.168Z,77.09
2023-03-23T08:05:03.770Z,77.57
2023-03-23T08:06:04.702Z,75.02
2023-03-23T08:07:04.609Z,72.73
2023-03-23T08:08:05.770Z,73.3
2023-03-23T08:09:06.513Z,73.54
2023-03-23T08:10:07.247Z,73.91
2023-03-23T08:11:08.184Z,73.54
2023-03-23T08:12:09.173Z,73.34
2023-03-23T08:13:09.661Z,72.73
2023-03-23T08:14:09.805Z,73.21
2023-03-23T08:15:10.166Z,73.79
2023-03-23T08:16:10.888Z,73.3
2023-03-23T08:17:11.588Z,73.59
2023-03-23T08:18:12.157Z,73.3
2023-03-23T08:19:14.122Z,73.4
2023-03-23T08:20:13.291Z,74.45
2023-03-23T08:21:13.806Z,74.26
2023-03-23T08:22:14.356Z,73.97
2023-03-23T08:23:15.057Z,73.79
2023-03-23T08:24:15.561Z,74.07
2023-03-23T08:25:16.184Z,74.07
2023-03-23T08:26:16.700Z,74.16
2023-03-23T08:27:16.794Z,74.36
2023-03-23T08:28:17.524Z,74.07
2023-03-23T08:29:17.825Z,74.07
2023-03-23T08:30:18.525Z,73.88
2023-03-23T08:31:19.020Z,73.88
2023-03-23T08:32:19.739Z,73.3
2023-03-23T08:33:20.722Z,73.72
2023-03-23T08:34:20.733Z,73.82
2023-03-23T08:35:21.361Z,73.24
2023-03-23T08:36:22.206Z,73.24
2023-03-23T08:37:23.086Z,73.24
2023-03-23T08:38:23.858Z,73.72
2023-03-23T08:39:24.771Z,73.44
2023-03-23T08:40:25.619Z,73.82
2023-03-23T08:41:26.110Z,73.91
2023-03-23T08:42:26.621Z,73.24
2023-03-23T08:43:27.139Z,72.52
2023-03-23T08:44:27.651Z,72.61
2023-03-23T08:45:28.247Z,71.75
2023-03-23T08:46:30.503Z,69.83
2023-03-23T08:47:30.641Z,68.97
2023-03-23T08:48:30.573Z,68.72
2023-03-23T08:49:31.554Z,69.01
2023-03-23T08:50:32.544Z,68.33
2023-03-23T08:51:32.698Z,68.05
2023-03-23T08:52:32.618Z,68.62
2023-03-23T08:53:33.398Z,67.95
2023-03-23T08:54:34.130Z,67.22
2023-03-23T08:55:35.396Z,66.13
2023-03-23T08:56:35.522Z,66.22
2023-03-23T08:57:36.462Z,65.94
2023-03-23T08:58:36.139Z,65.59
2023-03-23T08:59:36.819Z,65.39
2023-03-23T09:01:38.429Z,65.94
2023-03-23T09:02:39.509Z,66.83
2023-03-23T09:03:39.910Z,66.93
2023-03-23T09:04:40.328Z,66.16
2023-03-23T09:05:41.100Z,66.16
2023-03-23T09:06:41.305Z,66.99
2023-03-23T09:07:42.032Z,66.8
2023-03-23T09:08:42.931Z,67.28
2023-03-23T09:09:52.607Z,67.47
2023-03-23T09:10:44.326Z,66.89
2023-03-23T09:11:45.017Z,65.94
2023-03-23T09:12:45.324Z,64.89
2023-03-23T09:13:46.018Z,65.08
2023-03-23T09:14:46.700Z,65.75
2023-03-23T09:16:00.631Z,67.38
2023-03-23T09:16:48.188Z,67.47
2023-03-23T09:17:48.923Z,66.89
2023-03-23T09:18:49.131Z,66.99
2023-03-23T09:19:49.663Z,66.99
2023-03-23T09:20:49.772Z,66.61
2023-03-23T09:21:50.669Z,66.8
2023-03-23T09:22:51.701Z,66.99
2023-03-23T09:23:51.618Z,66.89
2023-03-23T09:24:52.327Z,66.8
2023-03-23T09:25:53.197Z,66.51
2023-03-23T09:26:54.108Z,66.71
2023-03-23T09:27:54.787Z,66.86
2023-03-23T09:28:55.491Z,67.25
2023-03-23T09:29:56.185Z,66.96
2023-03-23T09:30:58.710Z,66.67
2023-03-23T09:31:57.427Z,67.25
2023-03-23T09:32:58.069Z,67.44
2023-03-23T09:33:58.648Z,67.54
2023-03-23T09:34:58.971Z,67.25
2023-03-23T09:35:59.620Z,67.91
2023-03-23T09:37:02.380Z,68.01
2023-03-23T09:38:01.344Z,68.11
2023-03-23T09:39:02.075Z,67.91
2023-03-23T09:40:12.251Z,68.78
2023-03-23T09:41:03.181Z,68.97
2023-03-23T09:42:03.899Z,68.68
2023-03-23T09:43:04.882Z,68.78
2023-03-23T09:44:05.016Z,68.78
2023-03-23T09:45:05.596Z,67.91
2023-03-23T09:46:06.392Z,68.59
2023-03-23T09:47:07.416Z,67.72
2023-03-23T09:48:08.793Z,67.72
2023-03-23T09:49:08.952Z,67.54
2023-03-23T09:50:10.185Z,67.82
2023-03-23T09:51:10.749Z,67.95
2023-03-23T09:52:11.858Z,68.01
2023-03-23T09:53:12.575Z,67.91
2023-03-23T09:54:12.923Z,67.91
2023-03-23T09:55:13.483Z,67.63
2023-03-23T09:56:14.109Z,68.01
2023-03-23T09:57:14.857Z,68.21
2023-03-23T09:58:15.559Z,67.76
2023-03-23T09:59:16.324Z,68.14
2023-03-23T10:00:16.292Z,67.47
2023-03-23T10:01:16.659Z,67.47
2023-03-23T10:02:17.429Z,66.74
2023-03-23T10:03:18.216Z,66.45
2023-03-23T10:04:18.724Z,66.45
2023-03-23T10:05:18.915Z,67.41
2023-03-23T10:06:19.779Z,67.06
2023-03-23T10:07:20.509Z,66.67
2023-03-23T10:08:20.837Z,65.81
2023-03-23T10:09:21.395Z,64.95
2023-03-23T10:10:22.306Z,66.1
2023-03-23T10:11:23.230Z,66.29
2023-03-23T10:12:23.362Z,66.52
2023-03-23T10:13:24.419Z,64.98
2023-03-23T10:14:24.529Z,63.83
2023-03-23T10:15:24.439Z,63.54
2023-03-23T10:16:25.265Z,62.68
2023-03-23T10:17:26.245Z,62.96
2023-03-23T10:18:27.199Z,63.83
2023-03-23T10:19:28.146Z,63.25
2023-03-23T10:20:28.334Z,63.92
2023-03-23T10:21:29.253Z,64.59
2023-03-23T10:22:29.968Z,63.45
2023-03-23T10:23:30.893Z,63.09
2023-03-23T10:24:31.419Z,63.06
2023-03-23T10:25:31.961Z,63.35
2023-03-23T10:26:32.861Z,62.04
2023-03-23T10:27:33.553Z,62.42
2023-03-23T10:28:33.867Z,63.35
2023-03-23T10:29:34.997Z,63.06
2023-03-23T10:30:35.882Z,64.15
2023-03-23T10:31:36.641Z,64.43
2023-03-23T10:32:37.538Z,64.05
2023-03-23T10:33:38.510Z,63.67
2023-03-23T10:34:39.247Z,64.15
2023-03-23T10:35:39.729Z,62.71
2023-03-23T10:36:39.843Z,61.94
2023-03-23T10:37:40.604Z,61.65
2023-03-23T10:38:41.281Z,60.69
2023-03-23T10:39:41.593Z,60.31
2023-03-23T10:40:42.285Z,60.21
2023-03-23T10:41:43.027Z,59.64
2023-03-23T10:42:43.763Z,60.02
2023-03-23T10:43:43.905Z,60.14
2023-03-23T10:44:44.806Z,60.5
2023-03-23T10:46:00.387Z,60.78
2023-03-23T10:46:56.778Z,60.88
2023-03-23T10:47:57.475Z,60.98
2023-03-23T10:48:57.996Z,61.94
2023-03-23T10:49:57.911Z,61.36
2023-03-23T10:50:59.142Z,61.55
2023-03-23T10:52:00.053Z,61.84
2023-03-23T10:53:00.754Z,61.17
2023-03-23T10:54:01.493Z,61.17
2023-03-23T10:55:02.444Z,61.65
2023-03-23T10:56:03.356Z,63.48
2023-03-23T10:57:08.210Z,62.71
2023-03-23T10:58:09.156Z,63.48
2023-03-23T10:59:10.387Z,62.61
2023-03-23T11:00:11.120Z,62.32
2023-03-23T11:01:11.463Z,63.28
2023-03-23T11:02:15.706Z,61.94
2023-03-23T11:03:12.464Z,61.55
2023-03-23T11:04:12.565Z,61.94
2023-03-23T11:06:14.088Z,62.32
2023-03-23T11:07:14.430Z,61.94
2023-03-23T11:08:15.169Z,61.17
2023-03-23T11:09:15.749Z,61.08
2023-03-23T11:10:16.720Z,61.27
2023-03-23T11:11:17.630Z,61.08
2023-03-23T11:12:19.418Z,62.71
2023-03-23T11:13:19.271Z,62.32
2023-03-23T11:14:20.292Z,63.19
2023-03-23T11:15:20.399Z,64.72
2023-03-23T11:16:21.177Z,64.63
2023-03-23T11:17:21.584Z,64.15
2023-03-23T11:18:22.583Z,65.4
2023-03-23T11:19:22.839Z,67.03
2023-03-23T11:20:22.758Z,67.03
2023-03-23T11:21:23.944Z,67.83
2023-03-23T11:22:25.052Z,67.93
2023-03-23T11:23:25.555Z,67.16
2023-03-23T11:24:26.207Z,67.68
2023-03-23T11:25:26.924Z,68.06
2023-03-23T11:26:27.639Z,67.77
2023-03-23T11:27:28.357Z,67.86
2023-03-23T11:28:28.937Z,66.91
2023-03-23T11:29:29.857Z,66.33
2023-03-23T11:30:30.015Z,66.14
2023-03-23T11:31:30.657Z,66.04
2023-03-23T11:32:31.173Z,67.58
2023-03-23T11:33:32.098Z,67.58
2023-03-23T11:34:33.212Z,66.42
2023-03-23T11:35:33.180Z,66.94
2023-03-23T11:36:33.539Z,67.22
2023-03-23T11:37:33.850Z,66.27
2023-03-23T11:38:34.605Z,66.36
2023-03-23T11:39:35.272Z,65.69
2023-03-23T11:40:35.996Z,66.17
2023-03-23T11:41:36.917Z,65.37
2023-03-23T11:42:37.172Z,64.92
2023-03-23T11:43:37.858Z,65.01
2023-03-23T11:44:38.575Z,64.82
2023-03-23T11:45:39.413Z,64.73
2023-03-23T11:46:40.234Z,65.3
2023-03-23T11:47:41.187Z,65.11
2023-03-23T11:48:41.663Z,64.25
2023-03-23T11:49:42.421Z,63.09
2023-03-23T11:50:42.684Z,62.51
2023-03-23T11:51:42.875Z,62.41
2023-03-23T11:52:43.596Z,62.61
2023-03-23T11:53:44.566Z,64.73
2023-03-23T11:54:45.956Z,64.63
2023-03-23T11:55:45.950Z,63.57
2023-03-23T11:56:46.266Z,62.83
2023-03-23T11:57:46.533Z,61.68
2023-03-23T11:58:47.649Z,61.19
2023-03-23T11:59:48.382Z,61.58
2023-03-23T12:00:49.087Z,61.61
2023-03-23T12:01:49.815Z,61.32
2023-03-23T12:02:50.727Z,61.9
2023-03-23T12:03:51.238Z,63.54
2023-03-23T12:04:52.190Z,62.9
2023-03-23T12:05:52.773Z,60.58
2023-03-23T12:06:53.971Z,59.65
2023-03-23T12:07:54.419Z,59.36
2023-03-23T12:08:55.169Z,58.97
2023-03-23T12:09:55.488Z,59.17
2023-03-23T12:10:58.015Z,58.49
2023-03-23T12:11:57.059Z,58.97
2023-03-23T12:12:57.193Z,58.11
2023-03-23T12:14:01.935Z,57.92
2023-03-23T12:14:57.959Z,57.72
2023-03-23T12:15:58.387Z,59.27
2023-03-23T12:16:59.338Z,58.23
2023-03-23T12:17:59.785Z,56.95
2023-03-23T12:19:00.732Z,57.62
2023-03-23T12:20:01.167Z,56.85
2023-03-23T12:21:01.133Z,57.14
2023-03-23T12:22:01.676Z,56.95
2023-03-23T12:23:02.284Z,56.37
2023-03-23T12:24:06.514Z,56.37
2023-03-23T12:25:03.419Z,56.76
2023-03-23T12:26:03.476Z,57.72
2023-03-23T12:27:04.598Z,57.82
2023-03-23T12:28:04.846Z,56.27
2023-03-23T12:29:05.335Z,56.47
2023-03-23T12:30:05.833Z,56.09
2023-03-23T12:31:06.548Z,56.47
2023-03-23T12:32:07.105Z,58.85
2023-03-23T12:33:08.000Z,58.49
2023-03-23T12:34:09.115Z,56.25
2023-03-23T12:35:10.034Z,55.38
2023-03-23T12:36:10.293Z,54.8
2023-03-23T12:37:10.712Z,54.52
2023-03-23T12:38:11.343Z,55.09
2023-03-23T12:39:12.033Z,60.3
2023-03-23T12:40:13.153Z,62.51
2023-03-23T12:41:13.881Z,59.23
2023-03-23T12:42:14.585Z,58.92
2023-03-23T12:43:14.908Z,58.63
2023-03-23T12:44:15.603Z,58.34
2023-03-23T12:45:16.339Z,57.09
2023-03-23T12:46:16.899Z,56.51
2023-03-23T12:47:18.008Z,57.09
2023-03-23T12:48:18.635Z,57.76
2023-03-23T12:49:19.346Z,57.95
2023-03-23T12:50:20.278Z,57.95
2023-03-23T12:51:21.039Z,58.05
2023-03-23T12:52:21.204Z,59.01
2023-03-23T12:53:22.142Z,57.95
2023-03-23T12:54:22.858Z,61.71
2023-03-23T12:55:23.614Z,61.04
2023-03-23T12:56:23.514Z,59.81
2023-03-23T12:57:24.470Z,60.17
2023-03-23T12:58:25.052Z,57.21
2023-03-23T12:59:25.813Z,58.27
2023-03-23T13:00:26.757Z,57.98
2023-03-23T13:01:27.547Z,58.27
2023-03-23T13:02:28.117Z,59.52
2023-03-23T13:03:29.039Z,55.12
2023-03-23T13:04:29.947Z,53.94
2023-03-23T13:05:30.478Z,52.11
2023-03-23T13:06:37.895Z,52.11
2023-03-23T13:07:30.881Z,51.34
2023-03-23T13:08:31.768Z,50.09
2023-03-23T13:09:32.615Z,49.99
2023-03-23T13:10:33.329Z,50.83
2023-03-23T13:11:33.831Z,51.6
2023-03-23T13:12:34.935Z,51.86